sensor_id;sensor_type;location;lat;lon;timestamp;P1;durP1;ratioP1;P2;durP2;ratioP2
7575;SDS011;3829;50.798;4.358;2023-08-20T00:01:20;7.80;;;2.60;;
7575;SDS011;3829;50.798;4.358;2023-08-20T00:03:49;8.47;;;2.97;;
7575;SDS011;3829;50.798;4.358;2023-08-20T00:06:16;11.30;;;2.10;;
7575;SDS011;3829;50.798;4.358;2023-08-20T00:08:42;13.37;;;2.93;;
7575;SDS011;3829;50.798;4.358;2023-08-20T00:11:08;11.40;;;2.60;;
7575;SDS011;3829;50.798;4.358;2023-08-20T00:13:34;9.97;;;2.07;;
7575;SDS011;3829;50.798;4.358;2023-08-20T00:16:00;7.40;;;2.33;;
7575;SDS011;3829;50.798;4.358;2023-08-20T00:18:27;7.07;;;2.10;;
7575;SDS011;3829;50.798;4.358;2023-08-20T00:20:53;12.70;;;2.70;;
7575;SDS011;3829;50.798;4.358;2023-08-20T00:23:19;14.77;;;2.73;;
7575;SDS011;3829;50.798;4.358;2023-08-20T00:25:45;9.63;;;2.67;;
7575;SDS011;3829;50.798;4.358;2023-08-20T00:28:11;9.47;;;2.43;;
7575;SDS011;3829;50.798;4.358;2023-08-20T00:30:36;12.83;;;3.07;;
7575;SDS011;3829;50.798;4.358;2023-08-20T00:33:02;13.27;;;3.10;;
7575;SDS011;3829;50.798;4.358;2023-08-20T00:35:27;8.73;;;2.73;;
7575;SDS011;3829;50.798;4.358;2023-08-20T00:37:53;16.43;;;2.90;;
7575;SDS011;3829;50.798;4.358;2023-08-20T00:40:19;11.40;;;3.10;;
7575;SDS011;3829;50.798;4.358;2023-08-20T00:42:44;10.37;;;3.00;;
7575;SDS011;3829;50.798;4.358;2023-08-20T00:45:10;7.27;;;2.27;;
7575;SDS011;3829;50.798;4.358;2023-08-20T00:47:36;8.33;;;2.60;;
7575;SDS011;3829;50.798;4.358;2023-08-20T00:50:03;10.90;;;3.20;;
7575;SDS011;3829;50.798;4.358;2023-08-20T00:52:32;16.97;;;2.97;;
7575;SDS011;3829;50.798;4.358;2023-08-20T00:54:59;7.30;;;2.23;;
7575;SDS011;3829;50.798;4.358;2023-08-20T00:57:25;5.87;;;2.30;;
7575;SDS011;3829;50.798;4.358;2023-08-20T00:59:52;10.00;;;2.30;;
7575;SDS011;3829;50.798;4.358;2023-08-20T01:02:20;10.27;;;4.20;;
7575;SDS011;3829;50.798;4.358;2023-08-20T01:04:46;9.00;;;3.07;;
7575;SDS011;3829;50.798;4.358;2023-08-20T01:07:17;8.63;;;2.77;;
7575;SDS011;3829;50.798;4.358;2023-08-20T01:10:01;9.07;;;2.57;;
7575;SDS011;3829;50.798;4.358;2023-08-20T01:12:35;14.37;;;2.70;;
7575;SDS011;3829;50.798;4.358;2023-08-20T01:15:01;9.43;;;2.67;;
7575;SDS011;3829;50.798;4.358;2023-08-20T01:17:27;8.93;;;2.20;;
7575;SDS011;3829;50.798;4.358;2023-08-20T01:19:52;10.93;;;2.60;;
7575;SDS011;3829;50.798;4.358;2023-08-20T01:28:02;8.17;;;2.43;;
7575;SDS011;3829;50.798;4.358;2023-08-20T01:30:43;6.13;;;2.50;;
7575;SDS011;3829;50.798;4.358;2023-08-20T01:33:09;9.80;;;2.50;;
7575;SDS011;3829;50.798;4.358;2023-08-20T01:35:37;7.77;;;2.47;;
7575;SDS011;3829;50.798;4.358;2023-08-20T01:38:03;9.20;;;2.37;;
7575;SDS011;3829;50.798;4.358;2023-08-20T01:40:29;5.20;;;2.10;;
7575;SDS011;3829;50.798;4.358;2023-08-20T01:42:55;11.77;;;2.60;;
7575;SDS011;3829;50.798;4.358;2023-08-20T01:45:22;9.60;;;2.70;;
7575;SDS011;3829;50.798;4.358;2023-08-20T01:47:47;6.50;;;2.87;;
7575;SDS011;3829;50.798;4.358;2023-08-20T01:50:13;8.57;;;2.43;;
7575;SDS011;3829;50.798;4.358;2023-08-20T01:52:38;12.70;;;2.77;;
7575;SDS011;3829;50.798;4.358;2023-08-20T01:55:04;12.20;;;2.50;;
7575;SDS011;3829;50.798;4.358;2023-08-20T01:57:30;8.20;;;2.43;;
7575;SDS011;3829;50.798;4.358;2023-08-20T01:59:56;11.80;;;2.47;;
7575;SDS011;3829;50.798;4.358;2023-08-20T02:02:23;8.13;;;2.80;;
7575;SDS011;3829;50.798;4.358;2023-08-20T02:04:49;9.40;;;2.60;;
7575;SDS011;3829;50.798;4.358;2023-08-20T02:07:15;14.83;;;3.13;;
7575;SDS011;3829;50.798;4.358;2023-08-20T02:09:40;16.63;;;3.30;;
7575;SDS011;3829;50.798;4.358;2023-08-20T02:12:06;8.77;;;2.97;;
7575;SDS011;3829;50.798;4.358;2023-08-20T02:14:32;12.13;;;3.00;;
7575;SDS011;3829;50.798;4.358;2023-08-20T02:17:00;12.40;;;2.90;;
7575;SDS011;3829;50.798;4.358;2023-08-20T02:19:26;10.87;;;2.80;;
7575;SDS011;3829;50.798;4.358;2023-08-20T02:21:52;12.43;;;3.00;;
7575;SDS011;3829;50.798;4.358;2023-08-20T02:24:18;9.83;;;2.57;;
7575;SDS011;3829;50.798;4.358;2023-08-20T02:26:44;9.57;;;3.20;;
7575;SDS011;3829;50.798;4.358;2023-08-20T02:29:09;10.60;;;2.70;;
7575;SDS011;3829;50.798;4.358;2023-08-20T02:31:35;16.70;;;3.10;;
7575;SDS011;3829;50.798;4.358;2023-08-20T02:34:01;7.37;;;3.00;;
7575;SDS011;3829;50.798;4.358;2023-08-20T02:36:27;9.40;;;2.63;;
7575;SDS011;3829;50.798;4.358;2023-08-20T02:38:52;6.73;;;2.60;;
7575;SDS011;3829;50.798;4.358;2023-08-20T02:41:18;11.27;;;3.07;;
7575;SDS011;3829;50.798;4.358;2023-08-20T02:43:44;9.10;;;2.40;;
7575;SDS011;3829;50.798;4.358;2023-08-20T02:46:10;9.60;;;3.10;;
7575;SDS011;3829;50.798;4.358;2023-08-20T02:48:35;9.57;;;2.60;;
7575;SDS011;3829;50.798;4.358;2023-08-20T02:51:01;9.67;;;3.17;;
7575;SDS011;3829;50.798;4.358;2023-08-20T02:53:27;12.57;;;3.07;;
7575;SDS011;3829;50.798;4.358;2023-08-20T02:55:53;7.50;;;2.83;;
7575;SDS011;3829;50.798;4.358;2023-08-20T02:58:19;7.47;;;2.63;;
7575;SDS011;3829;50.798;4.358;2023-08-20T03:00:45;17.83;;;3.30;;
7575;SDS011;3829;50.798;4.358;2023-08-20T03:03:11;13.23;;;2.50;;
7575;SDS011;3829;50.798;4.358;2023-08-20T03:05:37;11.10;;;3.00;;
7575;SDS011;3829;50.798;4.358;2023-08-20T03:08:02;10.47;;;2.97;;
7575;SDS011;3829;50.798;4.358;2023-08-20T03:10:30;7.00;;;2.70;;
7575;SDS011;3829;50.798;4.358;2023-08-20T03:12:57;12.60;;;3.60;;
7575;SDS011;3829;50.798;4.358;2023-08-20T03:15:23;10.57;;;3.10;;
7575;SDS011;3829;50.798;4.358;2023-08-20T03:17:49;8.97;;;2.70;;
7575;SDS011;3829;50.798;4.358;2023-08-20T03:20:15;13.67;;;2.97;;
7575;SDS011;3829;50.798;4.358;2023-08-20T03:22:40;12.07;;;2.67;;
7575;SDS011;3829;50.798;4.358;2023-08-20T03:25:06;10.50;;;2.93;;
7575;SDS011;3829;50.798;4.358;2023-08-20T03:27:32;10.73;;;2.70;;
7575;SDS011;3829;50.798;4.358;2023-08-20T03:29:57;9.30;;;3.10;;
7575;SDS011;3829;50.798;4.358;2023-08-20T03:32:23;9.47;;;3.00;;
7575;SDS011;3829;50.798;4.358;2023-08-20T03:34:49;10.67;;;2.70;;
7575;SDS011;3829;50.798;4.358;2023-08-20T03:37:14;9.13;;;2.60;;
7575;SDS011;3829;50.798;4.358;2023-08-20T03:39:40;11.97;;;2.63;;
7575;SDS011;3829;50.798;4.358;2023-08-20T03:42:06;11.47;;;2.87;;
7575;SDS011;3829;50.798;4.358;2023-08-20T03:44:31;8.70;;;3.03;;
7575;SDS011;3829;50.798;4.358;2023-08-20T03:46:57;11.67;;;2.30;;
7575;SDS011;3829;50.798;4.358;2023-08-20T03:49:23;11.70;;;3.13;;
7575;SDS011;3829;50.798;4.358;2023-08-20T03:51:48;10.40;;;3.50;;
7575;SDS011;3829;50.798;4.358;2023-08-20T03:54:14;8.30;;;2.77;;
7575;SDS011;3829;50.798;4.358;2023-08-20T03:56:40;14.57;;;3.30;;
7575;SDS011;3829;50.798;4.358;2023-08-20T03:59:05;12.13;;;3.03;;
7575;SDS011;3829;50.798;4.358;2023-08-20T04:01:31;8.10;;;3.17;;
7575;SDS011;3829;50.798;4.358;2023-08-20T04:03:57;8.93;;;3.00;;
7575;SDS011;3829;50.798;4.358;2023-08-20T04:06:23;13.47;;;3.07;;
7575;SDS011;3829;50.798;4.358;2023-08-20T04:08:48;15.07;;;3.00;;
7575;SDS011;3829;50.798;4.358;2023-08-20T04:11:14;7.47;;;2.73;;
7575;SDS011;3829;50.798;4.358;2023-08-20T04:13:40;8.43;;;2.97;;
7575;SDS011;3829;50.798;4.358;2023-08-20T04:16:08;9.57;;;3.07;;
7575;SDS011;3829;50.798;4.358;2023-08-20T04:18:34;6.60;;;3.00;;
7575;SDS011;3829;50.798;4.358;2023-08-20T04:21:00;7.37;;;2.47;;
7575;SDS011;3829;50.798;4.358;2023-08-20T04:23:26;10.67;;;3.20;;
7575;SDS011;3829;50.798;4.358;2023-08-20T04:25:51;12.27;;;3.10;;
7575;SDS011;3829;50.798;4.358;2023-08-20T04:28:17;11.87;;;3.00;;
7575;SDS011;3829;50.798;4.358;2023-08-20T04:30:42;11.20;;;2.83;;
7575;SDS011;3829;50.798;4.358;2023-08-20T04:33:08;12.17;;;2.93;;
7575;SDS011;3829;50.798;4.358;2023-08-20T04:35:34;8.43;;;2.53;;
7575;SDS011;3829;50.798;4.358;2023-08-20T04:38:00;9.80;;;3.00;;
7575;SDS011;3829;50.798;4.358;2023-08-20T04:40:25;6.67;;;2.53;;
7575;SDS011;3829;50.798;4.358;2023-08-20T04:42:51;9.03;;;2.90;;
7575;SDS011;3829;50.798;4.358;2023-08-20T04:45:16;9.17;;;2.87;;
7575;SDS011;3829;50.798;4.358;2023-08-20T04:47:44;10.13;;;2.83;;
7575;SDS011;3829;50.798;4.358;2023-08-20T04:50:11;10.63;;;2.73;;
7575;SDS011;3829;50.798;4.358;2023-08-20T04:52:38;7.10;;;2.80;;
7575;SDS011;3829;50.798;4.358;2023-08-20T04:55:04;8.33;;;2.63;;
7575;SDS011;3829;50.798;4.358;2023-08-20T04:57:31;12.60;;;2.90;;
7575;SDS011;3829;50.798;4.358;2023-08-20T04:59:57;9.57;;;2.90;;
7575;SDS011;3829;50.798;4.358;2023-08-20T05:02:22;9.23;;;3.57;;
7575;SDS011;3829;50.798;4.358;2023-08-20T05:04:48;10.20;;;2.90;;
7575;SDS011;3829;50.798;4.358;2023-08-20T05:07:14;8.50;;;2.50;;
7575;SDS011;3829;50.798;4.358;2023-08-20T05:09:40;10.90;;;3.03;;
7575;SDS011;3829;50.798;4.358;2023-08-20T05:12:06;8.93;;;2.90;;
7575;SDS011;3829;50.798;4.358;2023-08-20T05:14:32;8.33;;;3.27;;
7575;SDS011;3829;50.798;4.358;2023-08-20T05:16:57;6.13;;;2.53;;
7575;SDS011;3829;50.798;4.358;2023-08-20T05:19:23;12.43;;;2.40;;
7575;SDS011;3829;50.798;4.358;2023-08-20T05:21:49;9.53;;;2.43;;
7575;SDS011;3829;50.798;4.358;2023-08-20T05:24:14;9.93;;;2.53;;
7575;SDS011;3829;50.798;4.358;2023-08-20T05:26:40;10.40;;;2.30;;
7575;SDS011;3829;50.798;4.358;2023-08-20T05:29:05;3.50;;;1.90;;
7575;SDS011;3829;50.798;4.358;2023-08-20T05:31:31;11.57;;;3.33;;
7575;SDS011;3829;50.798;4.358;2023-08-20T05:33:57;7.77;;;2.37;;
7575;SDS011;3829;50.798;4.358;2023-08-20T05:36:23;6.13;;;2.57;;
7575;SDS011;3829;50.798;4.358;2023-08-20T05:38:48;8.23;;;2.70;;
7575;SDS011;3829;50.798;4.358;2023-08-20T05:41:14;6.60;;;2.43;;
7575;SDS011;3829;50.798;4.358;2023-08-20T05:43:40;5.87;;;1.93;;
7575;SDS011;3829;50.798;4.358;2023-08-20T05:46:05;5.77;;;2.30;;
7575;SDS011;3829;50.798;4.358;2023-08-20T05:48:31;14.53;;;2.70;;
7575;SDS011;3829;50.798;4.358;2023-08-20T05:50:57;7.30;;;2.30;;
7575;SDS011;3829;50.798;4.358;2023-08-20T05:53:22;7.00;;;2.10;;
7575;SDS011;3829;50.798;4.358;2023-08-20T05:55:48;12.10;;;2.43;;
7575;SDS011;3829;50.798;4.358;2023-08-20T05:58:14;9.00;;;2.30;;
7575;SDS011;3829;50.798;4.358;2023-08-20T06:00:39;3.33;;;2.03;;
7575;SDS011;3829;50.798;4.358;2023-08-20T06:03:05;6.57;;;2.33;;
7575;SDS011;3829;50.798;4.358;2023-08-20T06:05:32;7.77;;;2.20;;
7575;SDS011;3829;50.798;4.358;2023-08-20T06:07:58;6.57;;;2.03;;
7575;SDS011;3829;50.798;4.358;2023-08-20T06:10:24;9.37;;;2.43;;
7575;SDS011;3829;50.798;4.358;2023-08-20T06:12:49;6.03;;;1.67;;
7575;SDS011;3829;50.798;4.358;2023-08-20T06:15:15;8.30;;;2.10;;
7575;SDS011;3829;50.798;4.358;2023-08-20T06:17:41;8.30;;;1.93;;
7575;SDS011;3829;50.798;4.358;2023-08-20T06:20:06;4.83;;;1.83;;
7575;SDS011;3829;50.798;4.358;2023-08-20T06:22:33;6.40;;;1.83;;
7575;SDS011;3829;50.798;4.358;2023-08-20T06:24:59;7.67;;;2.07;;
7575;SDS011;3829;50.798;4.358;2023-08-20T06:27:25;6.27;;;2.33;;
7575;SDS011;3829;50.798;4.358;2023-08-20T06:29:51;10.97;;;2.30;;
7575;SDS011;3829;50.798;4.358;2023-08-20T06:32:16;8.63;;;3.47;;
7575;SDS011;3829;50.798;4.358;2023-08-20T06:34:42;8.50;;;3.10;;
7575;SDS011;3829;50.798;4.358;2023-08-20T06:37:08;6.23;;;1.77;;
7575;SDS011;3829;50.798;4.358;2023-08-20T06:39:33;5.80;;;1.50;;
7575;SDS011;3829;50.798;4.358;2023-08-20T06:41:59;9.07;;;1.90;;
7575;SDS011;3829;50.798;4.358;2023-08-20T06:44:24;4.60;;;1.67;;
7575;SDS011;3829;50.798;4.358;2023-08-20T06:46:50;6.77;;;2.00;;
7575;SDS011;3829;50.798;4.358;2023-08-20T06:49:16;8.20;;;1.97;;
7575;SDS011;3829;50.798;4.358;2023-08-20T06:51:41;5.77;;;1.80;;
7575;SDS011;3829;50.798;4.358;2023-08-20T06:54:07;9.47;;;2.00;;
7575;SDS011;3829;50.798;4.358;2023-08-20T06:56:32;7.10;;;2.13;;
7575;SDS011;3829;50.798;4.358;2023-08-20T06:58:58;8.40;;;1.93;;
7575;SDS011;3829;50.798;4.358;2023-08-20T07:01:25;6.40;;;2.00;;
7575;SDS011;3829;50.798;4.358;2023-08-20T07:03:50;4.50;;;1.50;;
7575;SDS011;3829;50.798;4.358;2023-08-20T07:06:16;6.73;;;1.80;;
7575;SDS011;3829;50.798;4.358;2023-08-20T07:08:43;5.90;;;1.67;;
7575;SDS011;3829;50.798;4.358;2023-08-20T07:11:09;6.03;;;1.80;;
7575;SDS011;3829;50.798;4.358;2023-08-20T07:13:35;4.27;;;1.50;;
7575;SDS011;3829;50.798;4.358;2023-08-20T07:16:00;4.33;;;1.73;;
7575;SDS011;3829;50.798;4.358;2023-08-20T07:18:26;6.30;;;1.67;;
7575;SDS011;3829;50.798;4.358;2023-08-20T07:20:52;3.27;;;1.30;;
7575;SDS011;3829;50.798;4.358;2023-08-20T07:23:18;3.07;;;1.53;;
7575;SDS011;3829;50.798;4.358;2023-08-20T07:25:43;7.60;;;1.90;;
7575;SDS011;3829;50.798;4.358;2023-08-20T07:28:10;3.83;;;1.40;;
7575;SDS011;3829;50.798;4.358;2023-08-20T07:30:36;4.53;;;1.77;;
7575;SDS011;3829;50.798;4.358;2023-08-20T07:33:02;8.10;;;1.67;;
7575;SDS011;3829;50.798;4.358;2023-08-20T07:35:28;6.87;;;1.80;;
7575;SDS011;3829;50.798;4.358;2023-08-20T07:37:53;3.73;;;1.87;;
7575;SDS011;3829;50.798;4.358;2023-08-20T07:40:19;5.50;;;1.73;;
7575;SDS011;3829;50.798;4.358;2023-08-20T07:42:45;4.90;;;1.50;;
7575;SDS011;3829;50.798;4.358;2023-08-20T07:45:11;5.40;;;1.90;;
7575;SDS011;3829;50.798;4.358;2023-08-20T07:47:36;3.13;;;1.30;;
7575;SDS011;3829;50.798;4.358;2023-08-20T07:50:03;6.83;;;1.57;;
7575;SDS011;3829;50.798;4.358;2023-08-20T07:52:29;4.37;;;1.40;;
7575;SDS011;3829;50.798;4.358;2023-08-20T07:54:55;4.83;;;1.27;;
7575;SDS011;3829;50.798;4.358;2023-08-20T07:57:21;4.20;;;1.43;;
7575;SDS011;3829;50.798;4.358;2023-08-20T07:59:48;1.70;;;1.10;;
7575;SDS011;3829;50.798;4.358;2023-08-20T08:02:15;2.37;;;1.10;;
7575;SDS011;3829;50.798;4.358;2023-08-20T08:04:41;4.63;;;1.30;;
7575;SDS011;3829;50.798;4.358;2023-08-20T08:07:07;1.47;;;0.83;;
7575;SDS011;3829;50.798;4.358;2023-08-20T08:09:33;4.50;;;1.20;;
7575;SDS011;3829;50.798;4.358;2023-08-20T08:11:59;3.43;;;1.03;;
7575;SDS011;3829;50.798;4.358;2023-08-20T08:14:25;1.23;;;0.90;;
7575;SDS011;3829;50.798;4.358;2023-08-20T08:16:51;3.17;;;1.40;;
7575;SDS011;3829;50.798;4.358;2023-08-20T08:19:17;4.53;;;1.20;;
7575;SDS011;3829;50.798;4.358;2023-08-20T08:21:43;2.70;;;1.10;;
7575;SDS011;3829;50.798;4.358;2023-08-20T08:24:09;1.33;;;0.97;;
7575;SDS011;3829;50.798;4.358;2023-08-20T08:26:36;3.80;;;1.77;;
7575;SDS011;3829;50.798;4.358;2023-08-20T08:29:02;4.00;;;1.10;;
7575;SDS011;3829;50.798;4.358;2023-08-20T08:31:28;3.80;;;1.10;;
7575;SDS011;3829;50.798;4.358;2023-08-20T08:33:54;3.53;;;1.27;;
7575;SDS011;3829;50.798;4.358;2023-08-20T08:36:20;4.87;;;1.30;;
7575;SDS011;3829;50.798;4.358;2023-08-20T08:38:46;2.63;;;1.20;;
7575;SDS011;3829;50.798;4.358;2023-08-20T08:41:12;5.77;;;1.60;;
7575;SDS011;3829;50.798;4.358;2023-08-20T08:43:39;2.60;;;1.10;;
7575;SDS011;3829;50.798;4.358;2023-08-20T08:46:06;2.10;;;1.07;;
7575;SDS011;3829;50.798;4.358;2023-08-20T08:48:34;3.70;;;1.10;;
7575;SDS011;3829;50.798;4.358;2023-08-20T08:51:00;2.27;;;1.00;;
7575;SDS011;3829;50.798;4.358;2023-08-20T08:53:27;2.93;;;1.20;;
7575;SDS011;3829;50.798;4.358;2023-08-20T08:55:53;2.27;;;1.40;;
7575;SDS011;3829;50.798;4.358;2023-08-20T08:58:19;2.23;;;1.10;;
7575;SDS011;3829;50.798;4.358;2023-08-20T09:00:44;2.80;;;1.10;;
7575;SDS011;3829;50.798;4.358;2023-08-20T09:03:10;2.30;;;0.90;;
7575;SDS011;3829;50.798;4.358;2023-08-20T09:05:57;2.17;;;1.23;;
7575;SDS011;3829;50.798;4.358;2023-08-20T09:08:28;4.37;;;1.47;;
7575;SDS011;3829;50.798;4.358;2023-08-20T09:10:56;2.47;;;1.20;;
7575;SDS011;3829;50.798;4.358;2023-08-20T09:13:25;2.03;;;1.00;;
7575;SDS011;3829;50.798;4.358;2023-08-20T09:15:57;2.57;;;1.20;;
7575;SDS011;3829;50.798;4.358;2023-08-20T09:18:23;2.10;;;1.17;;
7575;SDS011;3829;50.798;4.358;2023-08-20T09:20:48;1.57;;;1.00;;
7575;SDS011;3829;50.798;4.358;2023-08-20T09:23:15;3.83;;;1.20;;
7575;SDS011;3829;50.798;4.358;2023-08-20T09:25:41;2.73;;;1.23;;
7575;SDS011;3829;50.798;4.358;2023-08-20T09:28:08;2.03;;;1.07;;
7575;SDS011;3829;50.798;4.358;2023-08-20T09:30:34;3.97;;;1.20;;
7575;SDS011;3829;50.798;4.358;2023-08-20T09:33:04;1.67;;;0.73;;
7575;SDS011;3829;50.798;4.358;2023-08-20T09:35:31;4.40;;;1.57;;
7575;SDS011;3829;50.798;4.358;2023-08-20T09:37:59;2.67;;;1.20;;
7575;SDS011;3829;50.798;4.358;2023-08-20T09:40:27;3.00;;;1.10;;
7575;SDS011;3829;50.798;4.358;2023-08-20T09:42:53;4.53;;;1.10;;
7575;SDS011;3829;50.798;4.358;2023-08-20T09:45:20;2.67;;;1.07;;
7575;SDS011;3829;50.798;4.358;2023-08-20T09:47:47;2.43;;;0.90;;
7575;SDS011;3829;50.798;4.358;2023-08-20T09:50:14;4.13;;;1.13;;
7575;SDS011;3829;50.798;4.358;2023-08-20T09:52:48;4.50;;;1.10;;
7575;SDS011;3829;50.798;4.358;2023-08-20T09:55:28;3.43;;;1.00;;
7575;SDS011;3829;50.798;4.358;2023-08-20T09:57:57;3.00;;;0.83;;
7575;SDS011;3829;50.798;4.358;2023-08-20T10:00:25;2.83;;;1.17;;
7575;SDS011;3829;50.798;4.358;2023-08-20T10:02:52;2.03;;;0.80;;
7575;SDS011;3829;50.798;4.358;2023-08-20T10:05:18;1.87;;;1.00;;
7575;SDS011;3829;50.798;4.358;2023-08-20T10:07:46;3.77;;;1.30;;
7575;SDS011;3829;50.798;4.358;2023-08-20T10:10:12;4.60;;;1.00;;
7575;SDS011;3829;50.798;4.358;2023-08-20T10:12:38;3.17;;;1.10;;
7575;SDS011;3829;50.798;4.358;2023-08-20T10:15:07;2.33;;;1.17;;
7575;SDS011;3829;50.798;4.358;2023-08-20T10:17:34;2.33;;;1.20;;
7575;SDS011;3829;50.798;4.358;2023-08-20T10:20:02;2.47;;;1.10;;
7575;SDS011;3829;50.798;4.358;2023-08-20T10:22:37;3.47;;;1.00;;
7575;SDS011;3829;50.798;4.358;2023-08-20T10:25:05;2.93;;;1.27;;
7575;SDS011;3829;50.798;4.358;2023-08-20T10:27:32;6.63;;;1.00;;
7575;SDS011;3829;50.798;4.358;2023-08-20T10:30:00;4.20;;;1.33;;
7575;SDS011;3829;50.798;4.358;2023-08-20T10:32:42;5.17;;;1.00;;
7575;SDS011;3829;50.798;4.358;2023-08-20T10:35:12;3.97;;;1.00;;
7575;SDS011;3829;50.798;4.358;2023-08-20T10:37:39;4.27;;;1.20;;
7575;SDS011;3829;50.798;4.358;2023-08-20T10:48:38;2.40;;;1.10;;
7575;SDS011;3829;50.798;4.358;2023-08-20T10:51:06;3.50;;;1.33;;
7575;SDS011;3829;50.798;4.358;2023-08-20T10:53:37;2.60;;;1.00;;
7575;SDS011;3829;50.798;4.358;2023-08-20T10:56:08;4.23;;;1.10;;
7575;SDS011;3829;50.798;4.358;2023-08-20T10:58:40;2.87;;;1.37;;
7575;SDS011;3829;50.798;4.358;2023-08-20T11:01:16;3.40;;;1.50;;
7575;SDS011;3829;50.798;4.358;2023-08-20T11:03:44;4.10;;;1.30;;
7575;SDS011;3829;50.798;4.358;2023-08-20T11:06:11;2.23;;;1.27;;
7575;SDS011;3829;50.798;4.358;2023-08-20T11:08:37;2.20;;;1.00;;
7575;SDS011;3829;50.798;4.358;2023-08-20T11:11:04;3.87;;;1.60;;
7575;SDS011;3829;50.798;4.358;2023-08-20T11:13:32;3.20;;;1.27;;
7575;SDS011;3829;50.798;4.358;2023-08-20T11:15:58;2.90;;;1.13;;
7575;SDS011;3829;50.798;4.358;2023-08-20T11:18:24;5.13;;;1.40;;
7575;SDS011;3829;50.798;4.358;2023-08-20T11:20:50;3.47;;;1.03;;
7575;SDS011;3829;50.798;4.358;2023-08-20T11:23:16;3.63;;;1.30;;
7575;SDS011;3829;50.798;4.358;2023-08-20T11:25:42;2.67;;;1.30;;
7575;SDS011;3829;50.798;4.358;2023-08-20T11:28:08;3.27;;;1.13;;
7575;SDS011;3829;50.798;4.358;2023-08-20T11:30:34;3.33;;;1.67;;
7575;SDS011;3829;50.798;4.358;2023-08-20T11:33:00;4.63;;;1.30;;
7575;SDS011;3829;50.798;4.358;2023-08-20T11:35:26;5.03;;;1.47;;
7575;SDS011;3829;50.798;4.358;2023-08-20T11:37:52;4.27;;;1.20;;
7575;SDS011;3829;50.798;4.358;2023-08-20T11:40:20;3.30;;;1.40;;
7575;SDS011;3829;50.798;4.358;2023-08-20T11:42:46;4.17;;;1.93;;
7575;SDS011;3829;50.798;4.358;2023-08-20T11:45:13;3.60;;;1.40;;
7575;SDS011;3829;50.798;4.358;2023-08-20T11:47:40;3.83;;;1.20;;
7575;SDS011;3829;50.798;4.358;2023-08-20T11:50:07;3.80;;;1.03;;
7575;SDS011;3829;50.798;4.358;2023-08-20T11:52:33;2.87;;;1.17;;
7575;SDS011;3829;50.798;4.358;2023-08-20T11:55:00;2.17;;;1.07;;
7575;SDS011;3829;50.798;4.358;2023-08-20T11:57:26;2.53;;;1.10;;
7575;SDS011;3829;50.798;4.358;2023-08-20T11:59:53;3.70;;;1.40;;
7575;SDS011;3829;50.798;4.358;2023-08-20T12:02:26;2.23;;;1.20;;
7575;SDS011;3829;50.798;4.358;2023-08-20T12:04:54;3.73;;;1.23;;
7575;SDS011;3829;50.798;4.358;2023-08-20T12:07:24;3.13;;;1.20;;
7575;SDS011;3829;50.798;4.358;2023-08-20T12:09:51;5.07;;;1.63;;
7575;SDS011;3829;50.798;4.358;2023-08-20T12:12:18;4.83;;;1.40;;
7575;SDS011;3829;50.798;4.358;2023-08-20T12:14:45;7.17;;;2.10;;
7575;SDS011;3829;50.798;4.358;2023-08-20T12:17:11;5.03;;;1.50;;
7575;SDS011;3829;50.798;4.358;2023-08-20T12:19:37;3.77;;;1.20;;
7575;SDS011;3829;50.798;4.358;2023-08-20T12:22:03;2.60;;;1.40;;
7575;SDS011;3829;50.798;4.358;2023-08-20T12:24:28;4.97;;;1.50;;
7575;SDS011;3829;50.798;4.358;2023-08-20T12:26:54;4.83;;;1.43;;
7575;SDS011;3829;50.798;4.358;2023-08-20T12:29:20;2.93;;;1.40;;
7575;SDS011;3829;50.798;4.358;2023-08-20T12:31:45;3.90;;;1.30;;
7575;SDS011;3829;50.798;4.358;2023-08-20T12:34:11;3.17;;;1.10;;
7575;SDS011;3829;50.798;4.358;2023-08-20T12:36:36;1.40;;;1.10;;
7575;SDS011;3829;50.798;4.358;2023-08-20T12:39:02;6.33;;;1.20;;
7575;SDS011;3829;50.798;4.358;2023-08-20T12:41:29;1.93;;;1.20;;
7575;SDS011;3829;50.798;4.358;2023-08-20T12:43:55;3.67;;;1.40;;
7575;SDS011;3829;50.798;4.358;2023-08-20T12:46:20;3.23;;;1.20;;
7575;SDS011;3829;50.798;4.358;2023-08-20T12:48:46;1.93;;;1.27;;
7575;SDS011;3829;50.798;4.358;2023-08-20T12:51:12;4.67;;;1.50;;
7575;SDS011;3829;50.798;4.358;2023-08-20T12:53:39;2.70;;;1.33;;
7575;SDS011;3829;50.798;4.358;2023-08-20T12:56:04;4.43;;;1.60;;
7575;SDS011;3829;50.798;4.358;2023-08-20T12:58:30;3.17;;;1.40;;
7575;SDS011;3829;50.798;4.358;2023-08-20T13:00:56;3.80;;;1.30;;
7575;SDS011;3829;50.798;4.358;2023-08-20T13:03:21;2.60;;;1.20;;
7575;SDS011;3829;50.798;4.358;2023-08-20T13:05:47;4.27;;;1.57;;
7575;SDS011;3829;50.798;4.358;2023-08-20T13:08:13;4.50;;;1.40;;
7575;SDS011;3829;50.798;4.358;2023-08-20T13:10:40;3.40;;;1.33;;
7575;SDS011;3829;50.798;4.358;2023-08-20T13:13:08;6.50;;;1.63;;
7575;SDS011;3829;50.798;4.358;2023-08-20T13:15:36;6.53;;;2.30;;
7575;SDS011;3829;50.798;4.358;2023-08-20T13:18:02;4.47;;;1.63;;
7575;SDS011;3829;50.798;4.358;2023-08-20T13:20:28;4.07;;;1.80;;
7575;SDS011;3829;50.798;4.358;2023-08-20T13:22:54;3.00;;;1.40;;
7575;SDS011;3829;50.798;4.358;2023-08-20T13:25:20;5.20;;;1.53;;
7575;SDS011;3829;50.798;4.358;2023-08-20T13:27:47;6.83;;;2.20;;
7575;SDS011;3829;50.798;4.358;2023-08-20T13:30:12;2.40;;;1.37;;
7575;SDS011;3829;50.798;4.358;2023-08-20T13:32:38;1.63;;;1.13;;
7575;SDS011;3829;50.798;4.358;2023-08-20T13:35:04;5.70;;;1.50;;
7575;SDS011;3829;50.798;4.358;2023-08-20T13:37:30;3.13;;;1.30;;
7575;SDS011;3829;50.798;4.358;2023-08-20T13:39:56;5.23;;;1.53;;
7575;SDS011;3829;50.798;4.358;2023-08-20T13:42:22;2.70;;;1.30;;
7575;SDS011;3829;50.798;4.358;2023-08-20T13:44:48;4.07;;;1.40;;
7575;SDS011;3829;50.798;4.358;2023-08-20T13:47:14;4.03;;;1.37;;
7575;SDS011;3829;50.798;4.358;2023-08-20T13:49:39;5.23;;;1.77;;
7575;SDS011;3829;50.798;4.358;2023-08-20T13:52:05;6.60;;;1.33;;
7575;SDS011;3829;50.798;4.358;2023-08-20T13:54:31;4.43;;;1.30;;
7575;SDS011;3829;50.798;4.358;2023-08-20T13:56:57;3.67;;;1.20;;
7575;SDS011;3829;50.798;4.358;2023-08-20T13:59:23;3.53;;;1.33;;
7575;SDS011;3829;50.798;4.358;2023-08-20T14:01:48;5.20;;;1.40;;
7575;SDS011;3829;50.798;4.358;2023-08-20T14:04:14;5.33;;;1.73;;
7575;SDS011;3829;50.798;4.358;2023-08-20T14:06:40;3.57;;;1.30;;
7575;SDS011;3829;50.798;4.358;2023-08-20T14:09:06;2.70;;;1.23;;
7575;SDS011;3829;50.798;4.358;2023-08-20T14:11:32;4.20;;;1.60;;
7575;SDS011;3829;50.798;4.358;2023-08-20T14:13:57;3.57;;;1.50;;
7575;SDS011;3829;50.798;4.358;2023-08-20T14:16:23;4.70;;;1.30;;
7575;SDS011;3829;50.798;4.358;2023-08-20T14:18:48;4.83;;;1.37;;
7575;SDS011;3829;50.798;4.358;2023-08-20T14:21:14;5.10;;;1.47;;
7575;SDS011;3829;50.798;4.358;2023-08-20T14:23:39;4.53;;;1.43;;
7575;SDS011;3829;50.798;4.358;2023-08-20T14:26:05;3.43;;;1.50;;
7575;SDS011;3829;50.798;4.358;2023-08-20T14:28:32;2.80;;;1.30;;
7575;SDS011;3829;50.798;4.358;2023-08-20T14:31:01;3.20;;;1.37;;
7575;SDS011;3829;50.798;4.358;2023-08-20T14:33:29;2.23;;;1.53;;
7575;SDS011;3829;50.798;4.358;2023-08-20T14:35:55;3.23;;;1.40;;
7575;SDS011;3829;50.798;4.358;2023-08-20T14:38:21;3.20;;;1.50;;
7575;SDS011;3829;50.798;4.358;2023-08-20T14:40:46;3.30;;;1.20;;
7575;SDS011;3829;50.798;4.358;2023-08-20T14:43:12;3.70;;;1.47;;
7575;SDS011;3829;50.798;4.358;2023-08-20T14:45:38;4.00;;;1.30;;
7575;SDS011;3829;50.798;4.358;2023-08-20T14:48:03;3.43;;;1.33;;
7575;SDS011;3829;50.798;4.358;2023-08-20T14:50:29;3.47;;;1.33;;
7575;SDS011;3829;50.798;4.358;2023-08-20T14:52:55;4.93;;;1.40;;
7575;SDS011;3829;50.798;4.358;2023-08-20T14:55:21;4.77;;;1.40;;
7575;SDS011;3829;50.798;4.358;2023-08-20T14:57:46;3.57;;;1.37;;
7575;SDS011;3829;50.798;4.358;2023-08-20T15:00:13;4.00;;;1.50;;
7575;SDS011;3829;50.798;4.358;2023-08-20T15:02:40;5.03;;;1.70;;
7575;SDS011;3829;50.798;4.358;2023-08-20T15:05:06;3.23;;;1.20;;
7575;SDS011;3829;50.798;4.358;2023-08-20T15:07:32;3.53;;;1.40;;
7575;SDS011;3829;50.798;4.358;2023-08-20T15:09:57;3.63;;;1.20;;
7575;SDS011;3829;50.798;4.358;2023-08-20T15:12:23;4.03;;;1.25;;
7575;SDS011;3829;50.798;4.358;2023-08-20T15:14:49;3.75;;;1.20;;
7575;SDS011;3829;50.798;4.358;2023-08-20T15:17:14;2.97;;;1.27;;
7575;SDS011;3829;50.798;4.358;2023-08-20T15:19:40;2.92;;;1.00;;
7575;SDS011;3829;50.798;4.358;2023-08-20T15:22:05;2.90;;;1.23;;